• Join FlightAware (Why Join?)
  • Login
  • US Flag 
02:08AM EDT


 

Airport Tracker/Info


-or-


 

Live Flight TrackerFlight Track Log ✈ VHT11 ✈ 20-Feb-2012 ✈ KVNY - KLAS

Flight Track Log - Related Links

Times and Time Zones

All times are in EST time to prevent confusion due to time zone crossing. See the VHT11 flight status page for this flight to view local times or setup timezone preferences in your user account.

Time Position Orientation Groundspeed Altitude Reporting Facility
EST Latitude Longitude Course Direction KTS MPH feet Rate Location/Type
12:33AM 34.2448 -118.5872 130° Southeast  Level FlightAware Approximate
12:34AM 34.1328 -118.4250 28° Northeast 205 236 4,600  Level Los Angeles Center
12:35AM 34.1897 -118.3889 339° North 149 171 8,600 3,780 Climbing Los Angeles Center
12:36AM 34.2703 -118.4261 351° North 209 241 12,200 3,720 Climbing Los Angeles Center
12:37AM 34.3744 -118.4467 44° Northeast 280 322 16,100 3,300 Climbing Los Angeles Center
12:38AM 34.4511 -118.3581 56° Northeast 295 339 18,900 1,680 Climbing Los Angeles Center
12:39AM 34.5136 -118.2439 50° Northeast 344 396 19,500 2,040 Climbing Los Angeles Center
12:40AM 34.5844 -118.1397 62° Northeast 371 427 23,000 1,740 Climbing Los Angeles Center
12:41AM 34.6364 -118.0222 83° East 390 449 23,000  Level Los Angeles Center
12:42AM 34.6508 -117.8839 81° East 390 449 23,000  Level Los Angeles Center
12:43AM 34.6697 -117.7403 73° East 406 467 23,000  Level Los Angeles Center
12:44AM 34.7003 -117.6194 73° East 412 474 23,000  Level Los Angeles Center
12:45AM 34.7353 -117.4811 73° East 412 474 23,000  Level Los Angeles Center
12:46AM 34.7703 -117.3428 72° East 417 480 23,000  Level Los Angeles Center
12:47AM 34.8050 -117.2092 74° East 417 480 23,000  Level Los Angeles Center
12:48AM 34.8372 -117.0753 73° East 417 480 23,000  Level Los Angeles Center
12:49AM 34.8675 -116.9567 73° East 394 453 23,000  Level Los Angeles Center
12:50AM 34.8975 -116.8381 73° East 374 430 23,000  Level Los Angeles Center
12:51AM 34.9272 -116.7167 72° East 364 419 23,000  Level Los Angeles Center
12:52AM 34.9592 -116.5978 50° Northeast 364 419 23,000  Level Los Angeles Center
12:53AM 35.0242 -116.5042 46° Northeast 357 411 23,000  Level Los Angeles Center
12:54AM 35.1017 -116.4056 46° Northeast 357 411 23,000 -300 Level Los Angeles Center
12:55AM 35.1706 -116.3194 45° Northeast 357 411 22,400 -1,140 Descending Los Angeles Center
12:56AM 35.2439 -116.2281 46° Northeast 357 411 20,800 -1,800 Descending Los Angeles Center
12:57AM 35.3147 -116.1392 46° Northeast 357 411 18,800 -1,800 Descending Los Angeles Center
12:58AM 35.3900 -116.0422 47° Northeast 357 411 17,200 -1,620 Descending Los Angeles Center
12:59AM 35.4586 -115.9506 44° Northeast 363 418 15,600 -1,560 Descending Los Angeles Center
12:59AM 35.5253 -115.8711 71° East 368 423 14,300 -1,500 Descending Los Angeles Center
01:00AM 35.5294 -115.8558 43° Northeast 363 418 14,100 -1,320 Descending Los Angeles Center
01:00AM 35.5939 -115.7817 45° Northeast 357 411 13,000 -1,140 Descending Los Angeles Center
01:01AM 35.6003 -115.7739 45° Northeast 363 418 13,000  Level Los Angeles Center
01:01AM 35.6625 -115.6969 53° Northeast 351 404 13,000  Level Los Angeles Center
01:02AM 35.6689 -115.6867 45° Northeast 358 412 13,000  Level Los Angeles Center
01:02AM 35.7289 -115.6122 270° West 344 396 13,000  Level Los Angeles Center
01:03AM 35.7289 -115.6147 23° Northeast 341 392 13,000  Level Los Angeles Center
01:04AM 35.8061 -115.5733 360° North 248 285 13,000  Level Los Angeles Center
01:05AM 35.8622 -115.5728 North 241 277 13,000  Level Los Angeles Center
01:05AM 35.8769 -115.5703 North 246 283 13,000  Level Los Angeles Center
01:06AM 35.9394 -115.5672 360° North 241 277 13,000  Level Los Angeles Center
01:06AM 35.9519 -115.5672 28° Northeast 252 290 13,000  Level Los Angeles Center
01:07AM 35.9997 -115.5361 53° Northeast 221 254 13,000  Level Los Angeles Center
01:07AM 36.0061 -115.5256 79° East 256 295 13,000 -1,020 Level Los Angeles Center
01:08AM 36.0181 -115.4511 80° East 214 246 12,000 -1,140 Descending Los Angeles Center
01:08AM 36.0203 -115.4358 80° East 263 303 11,900 -840 Descending Los Angeles Center
01:09AM 36.0303 -115.3689 91° East 221 254 11,200 -900 Descending Los Angeles Center
01:09AM 36.0300 -115.3406 96° East 235 270 10,900 -900 Descending Los Angeles Center
01:10AM 36.0256 -115.2919 112° Southeast 226 260 10,300 -1,020 Descending Los Angeles Center
01:10AM 36.0214 -115.2792 93° East 212 244 10,000 -1,140 Descending Los Angeles Center
01:11AM 36.0189 -115.2225 98° East 215 247 9,200 -1,020 Descending Los Angeles Center
01:11AM 36.0167 -115.2019 91° East 194 223 8,900 -1,140 Descending Los Angeles Center
01:12AM 36.0161 -115.1583 104° East 200 230 8,100 -900 Descending Los Angeles Center
01:12AM 36.0119 -115.1381 90° East 185 213 8,000 -120 Descending Los Angeles Center
01:13AM 36.0117 -115.0969 91° East 189 217 8,000  Level Los Angeles Center
01:13AM 36.0114 -115.0789 43° Northeast 189 217 8,000 -840 Level Los Angeles Center
01:14AM 36.0383 -115.0478 17° North 165 190 7,200 -900 Descending Los Angeles Center
01:14AM 36.0592 -115.0397 20° North 191 220 7,000 -900 Descending Los Angeles Center
01:15AM 36.0881 -115.0264 360° North 159 183 6,300 -1,320 Descending Los Angeles Center
01:15AM 36.1047 -115.0264 346° North 190 219 5,800 -1,320 Descending Los Angeles Center
01:16AM 36.1361 -115.0361 285° West 167 192 5,000 -1,260 Descending Los Angeles Center
01:16AM 36.1428 -115.0669 275° West 185 213 4,400 -1,140 Descending Los Angeles Center
01:17AM 36.1450 -115.0978 277° West 135 155 3,900 -1,020 Descending Los Angeles Center
01:17AM 36.1475 -115.1233 212° Southwest 161 185 3,400 -1,020 Descending Los Angeles Center
01:18AM 36.1267 -115.1392 220° Southwest 129 148 2,900 -900 Descending Los Angeles Center
01:18AM 36.1142 -115.1522 189° South 143 165 2,600 -720 Descending Los Angeles Center
01:19AM 36.0997 -115.1550 189° South 113 130 2,200 -660 Descending Los Angeles Center